sensor_id;sensor_type;location;lat;lon;timestamp;pressure;altitude;pressure_sealevel;temperature;humidity
9738;BME280;4908;47.446;13.900;2023-12-22T00:01:55;90853.28;;;5.13;100.00
9738;BME280;4908;47.446;13.900;2023-12-22T00:04:22;90834.41;;;5.04;100.00
9738;BME280;4908;47.446;13.900;2023-12-22T00:06:51;90812.06;;;5.05;100.00
9738;BME280;4908;47.446;13.900;2023-12-22T00:09:18;90834.00;;;5.09;100.00
9738;BME280;4908;47.446;13.900;2023-12-22T00:11:45;90860.69;;;4.91;100.00
9738;BME280;4908;47.446;13.900;2023-12-22T00:14:12;90893.63;;;4.90;100.00
9738;BME280;4908;47.446;13.900;2023-12-22T00:16:40;90948.44;;;4.52;100.00
9738;BME280;4908;47.446;13.900;2023-12-22T00:19:07;90914.56;;;4.23;100.00
9738;BME280;4908;47.446;13.900;2023-12-22T00:21:34;90912.75;;;4.02;100.00
9738;BME280;4908;47.446;13.900;2023-12-22T00:24:03;90932.91;;;3.82;100.00
9738;BME280;4908;47.446;13.900;2023-12-22T00:26:30;90968.50;;;3.60;100.00
9738;BME280;4908;47.446;13.900;2023-12-22T00:28:57;90926.19;;;3.46;100.00
9738;BME280;4908;47.446;13.900;2023-12-22T00:31:24;90920.56;;;3.37;100.00
9738;BME280;4908;47.446;13.900;2023-12-22T00:33:51;90937.56;;;3.15;100.00
9738;BME280;4908;47.446;13.900;2023-12-22T00:36:18;90946.31;;;3.05;100.00
9738;BME280;4908;47.446;13.900;2023-12-22T00:38:48;90954.22;;;2.87;100.00
9738;BME280;4908;47.446;13.900;2023-12-22T00:41:16;90938.75;;;2.71;100.00
9738;BME280;4908;47.446;13.900;2023-12-22T00:43:43;90945.91;;;2.78;100.00
9738;BME280;4908;47.446;13.900;2023-12-22T00:46:09;90956.13;;;2.87;100.00
9738;BME280;4908;47.446;13.900;2023-12-22T00:48:37;90981.41;;;3.02;100.00
9738;BME280;4908;47.446;13.900;2023-12-22T00:51:05;91004.06;;;2.92;100.00
9738;BME280;4908;47.446;13.900;2023-12-22T00:53:33;91007.06;;;3.01;100.00
9738;BME280;4908;47.446;13.900;2023-12-22T00:56:00;91058.44;;;3.07;100.00
9738;BME280;4908;47.446;13.900;2023-12-22T00:58:29;90945.91;;;2.89;100.00
9738;BME280;4908;47.446;13.900;2023-12-22T01:00:56;91019.91;;;2.89;100.00
9738;BME280;4908;47.446;13.900;2023-12-22T01:03:23;90996.88;;;2.79;100.00
9738;BME280;4908;47.446;13.900;2023-12-22T01:05:50;90999.91;;;2.70;100.00
9738;BME280;4908;47.446;13.900;2023-12-22T01:08:17;90984.78;;;2.60;100.00
9738;BME280;4908;47.446;13.900;2023-12-22T01:10:46;91018.38;;;2.66;100.00
9738;BME280;4908;47.446;13.900;2023-12-22T01:13:13;91020.69;;;2.86;100.00
9738;BME280;4908;47.446;13.900;2023-12-22T01:15:42;91015.72;;;2.66;100.00
9738;BME280;4908;47.446;13.900;2023-12-22T01:18:10;91041.03;;;2.67;100.00
9738;BME280;4908;47.446;13.900;2023-12-22T01:20:37;91058.38;;;2.54;100.00
9738;BME280;4908;47.446;13.900;2023-12-22T01:23:04;91046.25;;;2.46;100.00
9738;BME280;4908;47.446;13.900;2023-12-22T01:25:31;91058.31;;;2.40;100.00
9738;BME280;4908;47.446;13.900;2023-12-22T01:27:58;91059.44;;;2.39;100.00
9738;BME280;4908;47.446;13.900;2023-12-22T01:30:25;91078.59;;;2.26;100.00
9738;BME280;4908;47.446;13.900;2023-12-22T01:32:53;91169.47;;;2.18;100.00
9738;BME280;4908;47.446;13.900;2023-12-22T01:35:20;91219.16;;;2.02;100.00
9738;BME280;4908;47.446;13.900;2023-12-22T01:37:47;91205.19;;;2.01;100.00
9738;BME280;4908;47.446;13.900;2023-12-22T01:40:15;91197.69;;;2.10;100.00
9738;BME280;4908;47.446;13.900;2023-12-22T01:42:42;91207.03;;;1.97;100.00
9738;BME280;4908;47.446;13.900;2023-12-22T01:45:09;91183.19;;;1.83;100.00
9738;BME280;4908;47.446;13.900;2023-12-22T01:47:36;91190.13;;;1.58;100.00
9738;BME280;4908;47.446;13.900;2023-12-22T01:50:06;91163.97;;;1.39;100.00
9738;BME280;4908;47.446;13.900;2023-12-22T01:52:36;91169.47;;;1.20;100.00
9738;BME280;4908;47.446;13.900;2023-12-22T01:55:04;91160.69;;;1.09;100.00
9738;BME280;4908;47.446;13.900;2023-12-22T01:57:32;91142.56;;;1.04;100.00
9738;BME280;4908;47.446;13.900;2023-12-22T02:00:01;91158.88;;;1.13;100.00
9738;BME280;4908;47.446;13.900;2023-12-22T02:02:29;91133.56;;;1.05;100.00
9738;BME280;4908;47.446;13.900;2023-12-22T02:04:57;91119.91;;;0.96;100.00
9738;BME280;4908;47.446;13.900;2023-12-22T02:07:26;91129.09;;;1.09;100.00
9738;BME280;4908;47.446;13.900;2023-12-22T02:09:53;91117.47;;;1.17;100.00
9738;BME280;4908;47.446;13.900;2023-12-22T02:12:20;91134.00;;;1.14;100.00
9738;BME280;4908;47.446;13.900;2023-12-22T02:14:48;91128.41;;;1.19;100.00
9738;BME280;4908;47.446;13.900;2023-12-22T02:17:18;91125.66;;;1.05;100.00
9738;BME280;4908;47.446;13.900;2023-12-22T02:19:48;91133.13;;;0.99;100.00
9738;BME280;4908;47.446;13.900;2023-12-22T02:22:15;91130.94;;;1.08;100.00
9738;BME280;4908;47.446;13.900;2023-12-22T02:24:44;91121.63;;;1.18;100.00
9738;BME280;4908;47.446;13.900;2023-12-22T02:27:21;91094.34;;;1.00;100.00
9738;BME280;4908;47.446;13.900;2023-12-22T02:29:54;91089.09;;;1.03;100.00
9738;BME280;4908;47.446;13.900;2023-12-22T02:32:27;91119.03;;;0.84;100.00
9738;BME280;4908;47.446;13.900;2023-12-22T02:34:56;91136.03;;;0.54;100.00
9738;BME280;4908;47.446;13.900;2023-12-22T02:37:26;91145.56;;;0.65;100.00
9738;BME280;4908;47.446;13.900;2023-12-22T02:39:56;91151.28;;;0.74;100.00
9738;BME280;4908;47.446;13.900;2023-12-22T02:42:23;91155.91;;;0.81;100.00
9738;BME280;4908;47.446;13.900;2023-12-22T02:44:56;91152.81;;;0.75;100.00
9738;BME280;4908;47.446;13.900;2023-12-22T02:47:23;91149.03;;;0.73;100.00
9738;BME280;4908;47.446;13.900;2023-12-22T02:49:50;91152.03;;;0.71;100.00
9738;BME280;4908;47.446;13.900;2023-12-22T02:52:17;91149.63;;;0.59;100.00
9738;BME280;4908;47.446;13.900;2023-12-22T02:54:44;91139.22;;;0.37;100.00
9738;BME280;4908;47.446;13.900;2023-12-22T02:57:14;91136.63;;;0.40;100.00
9738;BME280;4908;47.446;13.900;2023-12-22T02:59:41;91150.88;;;0.39;100.00
9738;BME280;4908;47.446;13.900;2023-12-22T03:02:08;91158.56;;;0.51;100.00
9738;BME280;4908;47.446;13.900;2023-12-22T03:04:35;91166.84;;;0.53;100.00
9738;BME280;4908;47.446;13.900;2023-12-22T03:07:02;91163.22;;;0.65;100.00
9738;BME280;4908;47.446;13.900;2023-12-22T03:09:29;91148.19;;;0.65;100.00
9738;BME280;4908;47.446;13.900;2023-12-22T03:11:56;91160.34;;;0.73;100.00
9738;BME280;4908;47.446;13.900;2023-12-22T03:14:28;91198.75;;;0.78;100.00
9738;BME280;4908;47.446;13.900;2023-12-22T03:16:56;91170.53;;;0.78;100.00
9738;BME280;4908;47.446;13.900;2023-12-22T03:19:23;91149.06;;;0.76;100.00
9738;BME280;4908;47.446;13.900;2023-12-22T03:21:50;91155.06;;;0.73;100.00
9738;BME280;4908;47.446;13.900;2023-12-22T03:24:17;91156.91;;;0.69;100.00
9738;BME280;4908;47.446;13.900;2023-12-22T03:26:45;91179.06;;;0.68;100.00
9738;BME280;4908;47.446;13.900;2023-12-22T03:29:12;91189.53;;;0.61;100.00
9738;BME280;4908;47.446;13.900;2023-12-22T03:31:40;91195.16;;;0.60;100.00
9738;BME280;4908;47.446;13.900;2023-12-22T03:34:07;91198.47;;;0.53;100.00
9738;BME280;4908;47.446;13.900;2023-12-22T03:36:34;91190.88;;;0.48;100.00
9738;BME280;4908;47.446;13.900;2023-12-22T03:39:02;91179.94;;;0.46;100.00
9738;BME280;4908;47.446;13.900;2023-12-22T03:41:29;91188.94;;;0.45;100.00
9738;BME280;4908;47.446;13.900;2023-12-22T03:43:56;91198.34;;;0.43;100.00
9738;BME280;4908;47.446;13.900;2023-12-22T03:46:24;91209.59;;;0.43;100.00
9738;BME280;4908;47.446;13.900;2023-12-22T03:48:52;91201.00;;;0.46;100.00
9738;BME280;4908;47.446;13.900;2023-12-22T03:51:19;91153.25;;;0.48;100.00
9738;BME280;4908;47.446;13.900;2023-12-22T03:53:46;91157.72;;;0.44;100.00
9738;BME280;4908;47.446;13.900;2023-12-22T03:56:13;91144.19;;;0.45;100.00
9738;BME280;4908;47.446;13.900;2023-12-22T03:58:40;91138.09;;;0.38;100.00
9738;BME280;4908;47.446;13.900;2023-12-22T04:01:07;91153.13;;;0.37;100.00
9738;BME280;4908;47.446;13.900;2023-12-22T04:03:34;91158.44;;;0.41;100.00
9738;BME280;4908;47.446;13.900;2023-12-22T04:06:03;91156.88;;;0.36;100.00
9738;BME280;4908;47.446;13.900;2023-12-22T04:08:30;91144.13;;;0.38;100.00
9738;BME280;4908;47.446;13.900;2023-12-22T04:10:58;91116.63;;;0.36;100.00
9738;BME280;4908;47.446;13.900;2023-12-22T04:13:25;91115.16;;;0.38;100.00
9738;BME280;4908;47.446;13.900;2023-12-22T04:15:52;91143.00;;;0.39;100.00
9738;BME280;4908;47.446;13.900;2023-12-22T04:18:19;91132.88;;;0.41;100.00
9738;BME280;4908;47.446;13.900;2023-12-22T04:20:46;91099.75;;;0.37;100.00
9738;BME280;4908;47.446;13.900;2023-12-22T04:23:16;91113.34;;;0.42;100.00
9738;BME280;4908;47.446;13.900;2023-12-22T04:25:43;91096.38;;;0.40;100.00
9738;BME280;4908;47.446;13.900;2023-12-22T04:28:10;91098.34;;;0.46;100.00
9738;BME280;4908;47.446;13.900;2023-12-22T04:30:38;91095.31;;;0.44;100.00
9738;BME280;4908;47.446;13.900;2023-12-22T04:33:05;91104.75;;;0.49;100.00
9738;BME280;4908;47.446;13.900;2023-12-22T04:35:32;91096.84;;;0.49;100.00
9738;BME280;4908;47.446;13.900;2023-12-22T04:37:59;91077.28;;;0.46;100.00
9738;BME280;4908;47.446;13.900;2023-12-22T04:40:27;91082.94;;;0.48;100.00
9738;BME280;4908;47.446;13.900;2023-12-22T04:42:54;91082.53;;;0.46;100.00
9738;BME280;4908;47.446;13.900;2023-12-22T04:45:21;91077.97;;;0.43;100.00
9738;BME280;4908;47.446;13.900;2023-12-22T04:47:48;91077.91;;;0.36;100.00
9738;BME280;4908;47.446;13.900;2023-12-22T04:50:16;91091.50;;;0.42;100.00
9738;BME280;4908;47.446;13.900;2023-12-22T04:52:43;91088.44;;;0.36;100.00
9738;BME280;4908;47.446;13.900;2023-12-22T04:55:10;91097.84;;;0.37;100.00
9738;BME280;4908;47.446;13.900;2023-12-22T04:57:38;91115.88;;;0.35;100.00
9738;BME280;4908;47.446;13.900;2023-12-22T05:00:06;91133.19;;;0.36;100.00
9738;BME280;4908;47.446;13.900;2023-12-22T05:02:33;91114.75;;;0.36;100.00
9738;BME280;4908;47.446;13.900;2023-12-22T05:05:00;91102.63;;;0.28;100.00
9738;BME280;4908;47.446;13.900;2023-12-22T05:07:28;91122.56;;;0.29;100.00
9738;BME280;4908;47.446;13.900;2023-12-22T05:09:55;91127.53;;;0.34;100.00
9738;BME280;4908;47.446;13.900;2023-12-22T05:12:22;91122.25;;;0.34;100.00
9738;BME280;4908;47.446;13.900;2023-12-22T05:14:51;91132.78;;;0.34;100.00
9738;BME280;4908;47.446;13.900;2023-12-22T05:17:18;91121.38;;;0.23;100.00
9738;BME280;4908;47.446;13.900;2023-12-22T05:19:45;91117.66;;;0.28;100.00
9738;BME280;4908;47.446;13.900;2023-12-22T05:22:12;91112.03;;;0.29;100.00
9738;BME280;4908;47.446;13.900;2023-12-22T05:24:39;91099.59;;;0.26;100.00
9738;BME280;4908;47.446;13.900;2023-12-22T05:27:06;91106.84;;;0.33;100.00
9738;BME280;4908;47.446;13.900;2023-12-22T05:29:33;91102.72;;;0.35;100.00
9738;BME280;4908;47.446;13.900;2023-12-22T05:32:02;91100.13;;;0.39;100.00
9738;BME280;4908;47.446;13.900;2023-12-22T05:34:29;91104.63;;;0.38;100.00
9738;BME280;4908;47.446;13.900;2023-12-22T05:36:56;91102.06;;;0.45;100.00
9738;BME280;4908;47.446;13.900;2023-12-22T05:39:23;91123.13;;;0.45;100.00
9738;BME280;4908;47.446;13.900;2023-12-22T05:41:50;91094.56;;;0.47;100.00
9738;BME280;4908;47.446;13.900;2023-12-22T05:44:17;91087.88;;;0.53;100.00
9738;BME280;4908;47.446;13.900;2023-12-22T05:46:44;91090.91;;;0.55;100.00
9738;BME280;4908;47.446;13.900;2023-12-22T05:49:13;91127.75;;;0.55;100.00
9738;BME280;4908;47.446;13.900;2023-12-22T05:51:40;91095.38;;;0.51;100.00
9738;BME280;4908;47.446;13.900;2023-12-22T05:54:08;91113.03;;;0.51;100.00
9738;BME280;4908;47.446;13.900;2023-12-22T05:56:35;91085.22;;;0.50;100.00
9738;BME280;4908;47.446;13.900;2023-12-22T05:59:02;91111.53;;;0.50;100.00
9738;BME280;4908;47.446;13.900;2023-12-22T06:01:29;91129.94;;;0.46;100.00
9738;BME280;4908;47.446;13.900;2023-12-22T06:03:56;91115.72;;;0.54;100.00
9738;BME280;4908;47.446;13.900;2023-12-22T06:06:25;91116.47;;;0.55;100.00
9738;BME280;4908;47.446;13.900;2023-12-22T06:08:53;91092.06;;;0.58;100.00
9738;BME280;4908;47.446;13.900;2023-12-22T06:11:20;91092.88;;;0.62;100.00
9738;BME280;4908;47.446;13.900;2023-12-22T06:13:47;91084.91;;;0.58;100.00
9738;BME280;4908;47.446;13.900;2023-12-22T06:16:15;91073.31;;;0.63;100.00
9738;BME280;4908;47.446;13.900;2023-12-22T06:18:44;91071.38;;;0.56;100.00
9738;BME280;4908;47.446;13.900;2023-12-22T06:21:11;91056.22;;;0.46;100.00
9738;BME280;4908;47.446;13.900;2023-12-22T06:23:39;91050.97;;;0.50;100.00
9738;BME280;4908;47.446;13.900;2023-12-22T06:26:09;91009.28;;;0.55;100.00
9738;BME280;4908;47.446;13.900;2023-12-22T06:28:37;91035.41;;;0.74;100.00
9738;BME280;4908;47.446;13.900;2023-12-22T06:31:05;90989.53;;;0.75;100.00
9738;BME280;4908;47.446;13.900;2023-12-22T06:33:32;91022.72;;;0.83;100.00
9738;BME280;4908;47.446;13.900;2023-12-22T06:35:59;91035.50;;;0.81;100.00
9738;BME280;4908;47.446;13.900;2023-12-22T06:38:26;91050.50;;;0.77;100.00
9738;BME280;4908;47.446;13.900;2023-12-22T06:40:54;91082.13;;;0.81;100.00
9738;BME280;4908;47.446;13.900;2023-12-22T06:43:22;91114.97;;;0.90;100.00
9738;BME280;4908;47.446;13.900;2023-12-22T06:45:50;91089.88;;;1.04;100.00
9738;BME280;4908;47.446;13.900;2023-12-22T06:48:20;91086.84;;;1.05;100.00
9738;BME280;4908;47.446;13.900;2023-12-22T06:50:47;91050.72;;;1.06;100.00
9738;BME280;4908;47.446;13.900;2023-12-22T06:53:14;91089.56;;;1.09;100.00
9738;BME280;4908;47.446;13.900;2023-12-22T06:55:41;91078.63;;;1.07;100.00
9738;BME280;4908;47.446;13.900;2023-12-22T06:58:10;91094.81;;;1.09;100.00
9738;BME280;4908;47.446;13.900;2023-12-22T07:00:37;91113.19;;;1.02;100.00
9738;BME280;4908;47.446;13.900;2023-12-22T07:03:04;91085.31;;;0.97;100.00
9738;BME280;4908;47.446;13.900;2023-12-22T07:05:33;91104.81;;;0.93;100.00
9738;BME280;4908;47.446;13.900;2023-12-22T07:08:06;91115.22;;;0.78;100.00
9738;BME280;4908;47.446;13.900;2023-12-22T07:10:33;91108.44;;;0.77;100.00
9738;BME280;4908;47.446;13.900;2023-12-22T07:13:00;91127.34;;;0.86;100.00
9738;BME280;4908;47.446;13.900;2023-12-22T07:15:28;91109.25;;;0.81;100.00
9738;BME280;4908;47.446;13.900;2023-12-22T07:17:55;91135.66;;;0.88;100.00
9738;BME280;4908;47.446;13.900;2023-12-22T07:20:24;91141.66;;;0.85;100.00
9738;BME280;4908;47.446;13.900;2023-12-22T07:22:51;91151.38;;;0.81;100.00
9738;BME280;4908;47.446;13.900;2023-12-22T07:25:19;91139.97;;;0.70;100.00
9738;BME280;4908;47.446;13.900;2023-12-22T07:27:46;91143.75;;;0.73;100.00
9738;BME280;4908;47.446;13.900;2023-12-22T07:30:14;91142.28;;;0.75;100.00
9738;BME280;4908;47.446;13.900;2023-12-22T07:32:46;91143.78;;;0.76;100.00
9738;BME280;4908;47.446;13.900;2023-12-22T07:35:17;91178.88;;;0.84;100.00
9738;BME280;4908;47.446;13.900;2023-12-22T07:37:44;91181.53;;;0.87;100.00
9738;BME280;4908;47.446;13.900;2023-12-22T07:40:12;91195.84;;;0.86;100.00
9738;BME280;4908;47.446;13.900;2023-12-22T07:42:39;91172.47;;;0.81;100.00
9738;BME280;4908;47.446;13.900;2023-12-22T07:45:06;91196.66;;;0.94;100.00
9738;BME280;4908;47.446;13.900;2023-12-22T07:47:34;91213.31;;;1.02;100.00
9738;BME280;4908;47.446;13.900;2023-12-22T07:50:05;91202.41;;;1.03;100.00
9738;BME280;4908;47.446;13.900;2023-12-22T07:52:34;91175.72;;;1.05;100.00
9738;BME280;4908;47.446;13.900;2023-12-22T07:55:05;91190.75;;;1.04;100.00
9738;BME280;4908;47.446;13.900;2023-12-22T07:57:32;91209.91;;;1.01;100.00
9738;BME280;4908;47.446;13.900;2023-12-22T07:59:59;91194.44;;;0.96;100.00
9738;BME280;4908;47.446;13.900;2023-12-22T08:02:26;91210.25;;;0.96;100.00
9738;BME280;4908;47.446;13.900;2023-12-22T08:04:53;91226.81;;;0.97;100.00
9738;BME280;4908;47.446;13.900;2023-12-22T08:07:22;91237.91;;;0.79;100.00
9738;BME280;4908;47.446;13.900;2023-12-22T08:09:49;91243.06;;;0.72;100.00
9738;BME280;4908;47.446;13.900;2023-12-22T08:12:16;91222.81;;;0.76;100.00
9738;BME280;4908;47.446;13.900;2023-12-22T08:14:43;91217.25;;;0.81;100.00
9738;BME280;4908;47.446;13.900;2023-12-22T08:17:10;91216.88;;;0.83;100.00
9738;BME280;4908;47.446;13.900;2023-12-22T08:19:39;91207.88;;;0.87;100.00
9738;BME280;4908;47.446;13.900;2023-12-22T08:22:08;91214.59;;;0.81;100.00
9738;BME280;4908;47.446;13.900;2023-12-22T08:24:37;91231.31;;;0.96;100.00
9738;BME280;4908;47.446;13.900;2023-12-22T08:27:04;91244.13;;;0.98;100.00
9738;BME280;4908;47.446;13.900;2023-12-22T08:29:32;91236.50;;;0.85;100.00
9738;BME280;4908;47.446;13.900;2023-12-22T08:31:59;91235.44;;;0.93;100.00
9738;BME280;4908;47.446;13.900;2023-12-22T08:34:26;91219.59;;;0.90;100.00
9738;BME280;4908;47.446;13.900;2023-12-22T08:36:53;91223.38;;;0.93;100.00
9738;BME280;4908;47.446;13.900;2023-12-22T08:39:20;91222.16;;;0.83;100.00
9738;BME280;4908;47.446;13.900;2023-12-22T08:41:48;91240.22;;;0.84;100.00
9738;BME280;4908;47.446;13.900;2023-12-22T08:44:15;91242.50;;;0.86;100.00
9738;BME280;4908;47.446;13.900;2023-12-22T08:46:42;91251.63;;;0.96;100.00
9738;BME280;4908;47.446;13.900;2023-12-22T08:49:09;91232.31;;;0.84;100.00
9738;BME280;4908;47.446;13.900;2023-12-22T08:51:36;91245.56;;;0.91;100.00
9738;BME280;4908;47.446;13.900;2023-12-22T08:54:03;91231.25;;;0.89;100.00
9738;BME280;4908;47.446;13.900;2023-12-22T08:56:30;91235.56;;;0.74;100.00
9738;BME280;4908;47.446;13.900;2023-12-22T08:58:59;91260.50;;;0.80;100.00
9738;BME280;4908;47.446;13.900;2023-12-22T09:01:26;91233.03;;;0.81;100.00
9738;BME280;4908;47.446;13.900;2023-12-22T09:03:53;91251.56;;;0.88;100.00
9738;BME280;4908;47.446;13.900;2023-12-22T09:06:21;91293.88;;;0.73;100.00
9738;BME280;4908;47.446;13.900;2023-12-22T09:08:48;91334.03;;;0.66;100.00
9738;BME280;4908;47.446;13.900;2023-12-22T09:11:17;91324.53;;;0.84;100.00
9738;BME280;4908;47.446;13.900;2023-12-22T09:13:44;91338.09;;;0.86;100.00
9738;BME280;4908;47.446;13.900;2023-12-22T09:16:13;91352.41;;;0.85;100.00
9738;BME280;4908;47.446;13.900;2023-12-22T09:18:41;91347.00;;;0.78;100.00
9738;BME280;4908;47.446;13.900;2023-12-22T09:21:10;91395.47;;;0.74;100.00
9738;BME280;4908;47.446;13.900;2023-12-22T09:23:37;91395.25;;;0.82;100.00
9738;BME280;4908;47.446;13.900;2023-12-22T09:26:04;91369.25;;;0.81;100.00
9738;BME280;4908;47.446;13.900;2023-12-22T09:28:31;91343.88;;;0.69;100.00
9738;BME280;4908;47.446;13.900;2023-12-22T09:30:59;91366.50;;;0.74;100.00
9738;BME280;4908;47.446;13.900;2023-12-22T09:33:27;91392.94;;;0.77;100.00
9738;BME280;4908;47.446;13.900;2023-12-22T09:35:54;91402.69;;;0.77;100.00
9738;BME280;4908;47.446;13.900;2023-12-22T09:38:22;91390.56;;;0.72;100.00
9738;BME280;4908;47.446;13.900;2023-12-22T09:40:49;91429.97;;;0.65;100.00
9738;BME280;4908;47.446;13.900;2023-12-22T09:43:19;91399.38;;;0.57;100.00
9738;BME280;4908;47.446;13.900;2023-12-22T09:45:48;91404.66;;;0.57;100.00
9738;BME280;4908;47.446;13.900;2023-12-22T09:48:17;91374.06;;;0.75;100.00
9738;BME280;4908;47.446;13.900;2023-12-22T09:50:47;91358.41;;;0.86;100.00
9738;BME280;4908;47.446;13.900;2023-12-22T09:53:14;91353.09;;;0.82;100.00
9738;BME280;4908;47.446;13.900;2023-12-22T09:55:44;91337.78;;;0.91;100.00
9738;BME280;4908;47.446;13.900;2023-12-22T09:58:12;91313.47;;;1.05;100.00
9738;BME280;4908;47.446;13.900;2023-12-22T10:00:40;91333.69;;;1.57;100.00
9738;BME280;4908;47.446;13.900;2023-12-22T10:03:10;91282.09;;;1.59;100.00
9738;BME280;4908;47.446;13.900;2023-12-22T10:05:38;91332.25;;;1.63;100.00
9738;BME280;4908;47.446;13.900;2023-12-22T10:08:08;91287.81;;;1.65;100.00
9738;BME280;4908;47.446;13.900;2023-12-22T10:10:38;91285.19;;;1.65;100.00
9738;BME280;4908;47.446;13.900;2023-12-22T10:13:08;91288.47;;;1.55;100.00
9738;BME280;4908;47.446;13.900;2023-12-22T10:15:39;91290.31;;;1.51;100.00
9738;BME280;4908;47.446;13.900;2023-12-22T10:18:07;91370.47;;;1.46;100.00
9738;BME280;4908;47.446;13.900;2023-12-22T10:20:35;91261.25;;;1.47;100.00
9738;BME280;4908;47.446;13.900;2023-12-22T10:23:02;91313.16;;;1.40;100.00
9738;BME280;4908;47.446;13.900;2023-12-22T10:25:31;91290.38;;;1.25;100.00
9738;BME280;4908;47.446;13.900;2023-12-22T10:27:59;91289.63;;;1.24;100.00
9738;BME280;4908;47.446;13.900;2023-12-22T10:30:27;91251.09;;;1.13;100.00
9738;BME280;4908;47.446;13.900;2023-12-22T10:32:55;91263.31;;;0.95;100.00
9738;BME280;4908;47.446;13.900;2023-12-22T10:35:22;91243.44;;;1.01;100.00
9738;BME280;4908;47.446;13.900;2023-12-22T10:37:50;91234.63;;;1.23;100.00
9738;BME280;4908;47.446;13.900;2023-12-22T10:40:19;91232.47;;;1.32;100.00
9738;BME280;4908;47.446;13.900;2023-12-22T10:42:48;91246.75;;;1.31;100.00
9738;BME280;4908;47.446;13.900;2023-12-22T10:45:15;91279.19;;;1.35;100.00
9738;BME280;4908;47.446;13.900;2023-12-22T10:47:44;91268.03;;;1.48;100.00
9738;BME280;4908;47.446;13.900;2023-12-22T10:50:12;91249.16;;;1.43;100.00
9738;BME280;4908;47.446;13.900;2023-12-22T10:52:40;91268.66;;;1.35;100.00
9738;BME280;4908;47.446;13.900;2023-12-22T10:55:08;91251.31;;;1.34;100.00
9738;BME280;4908;47.446;13.900;2023-12-22T10:57:36;91243.75;;;1.32;100.00
9738;BME280;4908;47.446;13.900;2023-12-22T11:00:07;91237.81;;;1.39;100.00
9738;BME280;4908;47.446;13.900;2023-12-22T11:02:34;91239.16;;;1.59;100.00
9738;BME280;4908;47.446;13.900;2023-12-22T11:05:04;91233.25;;;1.76;100.00
9738;BME280;4908;47.446;13.900;2023-12-22T11:07:33;91240.53;;;1.90;100.00
9738;BME280;4908;47.446;13.900;2023-12-22T11:10:03;91214.53;;;1.88;100.00
9738;BME280;4908;47.446;13.900;2023-12-22T11:12:31;91212.69;;;1.96;100.00
9738;BME280;4908;47.446;13.900;2023-12-22T11:15:01;91208.09;;;1.89;100.00
9738;BME280;4908;47.446;13.900;2023-12-22T11:17:30;91176.66;;;1.66;100.00
9738;BME280;4908;47.446;13.900;2023-12-22T11:19:59;91175.53;;;1.67;100.00
9738;BME280;4908;47.446;13.900;2023-12-22T11:22:27;91172.19;;;1.74;100.00
9738;BME280;4908;47.446;13.900;2023-12-22T11:24:55;91195.25;;;1.84;100.00
9738;BME280;4908;47.446;13.900;2023-12-22T11:27:25;91174.97;;;1.95;100.00
9738;BME280;4908;47.446;13.900;2023-12-22T11:29:53;91179.63;;;2.12;100.00
9738;BME280;4908;47.446;13.900;2023-12-22T11:32:21;91148.53;;;1.85;100.00
9738;BME280;4908;47.446;13.900;2023-12-22T11:34:51;91159.53;;;1.94;100.00
9738;BME280;4908;47.446;13.900;2023-12-22T11:37:18;91154.84;;;2.27;100.00
9738;BME280;4908;47.446;13.900;2023-12-22T11:39:46;91197.78;;;2.24;100.00
9738;BME280;4908;47.446;13.900;2023-12-22T11:42:17;91202.25;;;2.13;100.00
9738;BME280;4908;47.446;13.900;2023-12-22T11:44:45;91178.03;;;2.04;100.00
9738;BME280;4908;47.446;13.900;2023-12-22T11:47:14;91202.00;;;1.78;100.00
9738;BME280;4908;47.446;13.900;2023-12-22T11:49:41;91205.28;;;1.64;100.00
9738;BME280;4908;47.446;13.900;2023-12-22T11:52:14;91196.47;;;1.50;100.00
9738;BME280;4908;47.446;13.900;2023-12-22T11:54:46;91193.81;;;1.46;100.00
9738;BME280;4908;47.446;13.900;2023-12-22T11:57:30;91230.69;;;1.43;100.00
9738;BME280;4908;47.446;13.900;2023-12-22T11:59:58;91208.75;;;1.32;100.00
9738;BME280;4908;47.446;13.900;2023-12-22T12:02:26;91216.66;;;1.32;100.00
9738;BME280;4908;47.446;13.900;2023-12-22T12:04:53;91202.44;;;1.40;100.00
9738;BME280;4908;47.446;13.900;2023-12-22T12:07:44;91203.44;;;1.28;100.00
9738;BME280;4908;47.446;13.900;2023-12-22T12:10:36;91202.19;;;1.19;100.00
9738;BME280;4908;47.446;13.900;2023-12-22T12:13:04;91195.09;;;1.23;100.00
9738;BME280;4908;47.446;13.900;2023-12-22T12:15:33;91195.22;;;1.37;100.00
9738;BME280;4908;47.446;13.900;2023-12-22T12:18:00;91186.78;;;1.21;100.00
9738;BME280;4908;47.446;13.900;2023-12-22T12:20:28;91205.81;;;1.04;100.00
9738;BME280;4908;47.446;13.900;2023-12-22T12:22:56;91200.94;;;1.06;100.00
9738;BME280;4908;47.446;13.900;2023-12-22T12:25:27;91213.31;;;1.02;100.00
9738;BME280;4908;47.446;13.900;2023-12-22T12:28:01;91202.34;;;0.96;100.00
9738;BME280;4908;47.446;13.900;2023-12-22T12:30:29;91225.28;;;0.96;100.00
9738;BME280;4908;47.446;13.900;2023-12-22T12:32:58;91214.88;;;1.06;100.00
9738;BME280;4908;47.446;13.900;2023-12-22T12:35:28;91215.72;;;1.14;100.00
9738;BME280;4908;47.446;13.900;2023-12-22T12:37:57;91196.88;;;1.15;100.00
9738;BME280;4908;47.446;13.900;2023-12-22T12:40:24;91191.31;;;1.20;100.00
9738;BME280;4908;47.446;13.900;2023-12-22T12:42:55;91185.03;;;1.32;100.00
9738;BME280;4908;47.446;13.900;2023-12-22T12:45:23;91171.09;;;1.35;100.00
9738;BME280;4908;47.446;13.900;2023-12-22T12:47:56;91166.97;;;1.34;100.00
9738;BME280;4908;47.446;13.900;2023-12-22T12:50:24;91165.91;;;1.42;100.00
9738;BME280;4908;47.446;13.900;2023-12-22T12:52:51;91202.47;;;1.47;100.00
9738;BME280;4908;47.446;13.900;2023-12-22T12:55:21;91172.31;;;1.44;100.00
9738;BME280;4908;47.446;13.900;2023-12-22T12:57:48;91183.28;;;1.50;100.00
9738;BME280;4908;47.446;13.900;2023-12-22T13:00:17;91195.75;;;1.53;100.00
9738;BME280;4908;47.446;13.900;2023-12-22T13:02:50;91205.16;;;1.50;100.00
9738;BME280;4908;47.446;13.900;2023-12-22T13:05:21;91200.59;;;1.47;100.00
9738;BME280;4908;47.446;13.900;2023-12-22T13:07:49;91155.00;;;1.47;100.00
9738;BME280;4908;47.446;13.900;2023-12-22T13:10:24;91173.47;;;1.47;100.00
9738;BME280;4908;47.446;13.900;2023-12-22T13:12:51;91168.25;;;1.54;100.00
9738;BME280;4908;47.446;13.900;2023-12-22T13:15:20;91160.84;;;1.66;100.00